createdAt,value
2019-02-25T00:00:41.273Z,263.32
2019-02-25T00:01:41.619Z,263.43
2019-02-25T00:02:41.793Z,263.21
2019-02-25T00:03:42.038Z,262.92
2019-02-25T00:04:42.292Z,264.61
2019-02-25T00:05:42.540Z,264.43
2019-02-25T00:06:42.801Z,263.52
2019-02-25T00:07:43.052Z,264.48
2019-02-25T00:08:43.347Z,262.96
2019-02-25T00:09:43.713Z,264.05
2019-02-25T00:10:43.813Z,263.48
2019-02-25T00:11:44.079Z,265.71
2019-02-25T00:12:44.351Z,265.55
2019-02-25T00:13:44.605Z,264.34
2019-02-25T00:14:44.837Z,264.64
2019-02-25T00:15:45.087Z,263.81
2019-02-25T00:16:45.590Z,264.96
2019-02-25T00:17:45.681Z,214.74
2019-02-25T00:18:45.868Z,263.32
2019-02-25T00:19:46.105Z,263.99
2019-02-25T00:20:46.355Z,264.55
2019-02-25T00:21:46.646Z,214.64
2019-02-25T00:22:46.851Z,263.86
2019-02-25T00:23:47.134Z,263.90
2019-02-25T00:24:47.370Z,264.48
2019-02-25T00:25:47.697Z,264.12
2019-02-25T00:26:47.884Z,264.65
2019-02-25T00:27:48.114Z,263.95
2019-02-25T00:28:48.362Z,264.34
2019-02-25T00:29:48.632Z,265.27
2019-02-25T00:30:48.882Z,263.66
2019-02-25T00:31:49.156Z,264.45
2019-02-25T00:32:49.400Z,265.32
2019-02-25T00:33:49.675Z,262.99
2019-02-25T00:34:49.883Z,264.19
2019-02-25T00:35:50.163Z,265.33
2019-02-25T00:36:50.431Z,264.12
2019-02-25T00:37:50.677Z,264.63
2019-02-25T00:38:50.925Z,263.97
2019-02-25T00:39:51.196Z,263.22
2019-02-25T00:40:51.435Z,263.36
2019-02-25T00:41:51.782Z,263.35
2019-02-25T00:42:52.007Z,264.63
2019-02-25T00:43:52.208Z,265.07
2019-02-25T00:44:52.476Z,264.50
2019-02-25T00:45:52.696Z,263.62
2019-02-25T00:46:52.985Z,263.53
2019-02-25T00:47:53.241Z,263.58
2019-02-25T00:48:53.475Z,263.05
2019-02-25T00:49:53.756Z,214.90
2019-02-25T00:50:54.098Z,264.89
2019-02-25T00:51:54.249Z,263.28
2019-02-25T00:52:54.488Z,263.06
2019-02-25T00:53:54.738Z,263.28
2019-02-25T00:54:55.003Z,263.79
2019-02-25T00:55:55.224Z,262.93
2019-02-25T00:56:55.516Z,264.49
2019-02-25T00:57:55.777Z,265.50
2019-02-25T00:58:56.144Z,262.88
2019-02-25T00:59:56.283Z,265.02
2019-02-25T01:00:56.508Z,263.41
2019-02-25T01:01:56.784Z,264.41
2019-02-25T01:02:57.051Z,263.68
2019-02-25T01:03:57.299Z,264.75
2019-02-25T01:04:57.569Z,265.42
2019-02-25T01:05:57.802Z,263.39
2019-02-25T01:06:58.115Z,262.82
2019-02-25T01:07:58.351Z,265.11
2019-02-25T01:08:58.566Z,265.28
2019-02-25T01:09:58.838Z,263.42
2019-02-25T01:10:59.074Z,264.55
2019-02-25T01:11:59.350Z,265.88
2019-02-25T01:12:59.588Z,264.51
2019-02-25T01:13:59.822Z,263.95
2019-02-25T01:15:00.253Z,265.27
2019-02-25T01:16:00.320Z,264.59
2019-02-25T01:17:00.612Z,263.54
2019-02-25T01:18:00.855Z,265.50
2019-02-25T01:19:01.079Z,265.07
2019-02-25T01:20:01.374Z,264.14
2019-02-25T01:21:01.624Z,263.28
2019-02-25T01:22:01.906Z,264.86
2019-02-25T01:23:02.158Z,264.85
2019-02-25T01:24:02.452Z,263.76
2019-02-25T01:25:02.656Z,264.39
2019-02-25T01:26:02.888Z,263.94
2019-02-25T01:27:03.162Z,264.85
2019-02-25T01:28:03.404Z,263.76
2019-02-25T01:29:03.650Z,264.74
2019-02-25T01:30:03.907Z,265.35
2019-02-25T01:31:04.154Z,262.54
2019-02-25T01:32:04.553Z,263.69
2019-02-25T01:33:04.682Z,264.47
2019-02-25T01:34:04.915Z,262.97
2019-02-25T01:35:05.174Z,263.91
2019-02-25T01:36:05.425Z,264.97
2019-02-25T01:37:05.682Z,264.85
2019-02-25T01:38:05.967Z,262.81
2019-02-25T01:39:06.213Z,262.92
2019-02-25T01:40:06.563Z,264.78
2019-02-25T01:41:06.702Z,264.82
2019-02-25T01:42:06.977Z,265.81
2019-02-25T01:43:07.270Z,263.77
2019-02-25T01:44:07.508Z,264.47
2019-02-25T01:45:07.774Z,262.89
2019-02-25T01:46:07.996Z,263.38
2019-02-25T01:47:08.269Z,263.31
2019-02-25T01:48:08.826Z,263.70
2019-02-25T01:49:08.761Z,264.72
2019-02-25T01:50:09.046Z,264.37
2019-02-25T01:51:09.265Z,264.41
2019-02-25T01:52:09.504Z,263.09
2019-02-25T01:53:09.802Z,263.29
2019-02-25T01:54:10.291Z,265.10
2019-02-25T01:55:10.321Z,265.12
2019-02-25T01:56:10.594Z,265.40
2019-02-25T01:57:10.800Z,264.58
2019-02-25T01:58:11.081Z,265.49
2019-02-25T01:59:11.318Z,265.55
2019-02-25T02:00:11.605Z,265.57
2019-02-25T02:01:11.840Z,264.81
2019-02-25T02:02:12.095Z,265.63
2019-02-25T02:03:12.386Z,263.36
2019-02-25T02:04:12.616Z,265.09
2019-02-25T02:05:12.933Z,265.60
2019-02-25T02:06:13.111Z,265.82
2019-02-25T02:07:13.356Z,264.09
2019-02-25T02:08:13.634Z,263.92
2019-02-25T02:09:13.845Z,264.28
2019-02-25T02:10:14.142Z,265.96
2019-02-25T02:11:14.382Z,265.65
2019-02-25T02:12:14.640Z,264.18
2019-02-25T02:13:15.063Z,264.67
2019-02-25T02:14:15.129Z,263.39
2019-02-25T02:15:15.409Z,264.51
2019-02-25T02:16:15.661Z,264.68
2019-02-25T02:17:15.919Z,265.58
2019-02-25T02:18:16.218Z,264.24
2019-02-25T02:19:16.431Z,265.48
2019-02-25T02:20:16.696Z,265.02
2019-02-25T02:21:16.998Z,263.41
2019-02-25T02:22:17.184Z,215.45
2019-02-25T02:23:17.462Z,263.63
2019-02-25T02:24:17.684Z,264.24
2019-02-25T02:25:17.957Z,263.29
2019-02-25T02:26:18.186Z,265.89
2019-02-25T02:27:18.447Z,264.64
2019-02-25T02:28:18.739Z,263.81
2019-02-25T02:29:18.995Z,263.29
2019-02-25T02:30:19.199Z,264.56
2019-02-25T02:31:19.441Z,264.48
2019-02-25T02:32:19.679Z,266.32
2019-02-25T02:33:20.005Z,263.84
2019-02-25T02:34:20.200Z,264.06
2019-02-25T02:35:20.464Z,265.44
2019-02-25T02:36:20.701Z,263.61
2019-02-25T02:37:21.003Z,265.95
2019-02-25T02:38:21.269Z,264.01
2019-02-25T02:39:21.469Z,264.54
2019-02-25T02:40:21.743Z,266.21
2019-02-25T02:41:21.971Z,265.25
2019-02-25T02:42:22.223Z,264.25
2019-02-25T02:43:22.519Z,263.93
2019-02-25T02:44:22.714Z,266.31
2019-02-25T02:45:23.022Z,266.04
2019-02-25T02:46:23.379Z,265.84
2019-02-25T02:47:23.496Z,265.46
2019-02-25T02:48:23.774Z,266.29
2019-02-25T02:49:23.985Z,265.03
2019-02-25T02:50:24.256Z,265.67
2019-02-25T02:51:24.508Z,265.19
2019-02-25T02:52:24.764Z,265.85
2019-02-25T02:53:25.057Z,265.00
2019-02-25T02:54:25.418Z,263.57
2019-02-25T02:55:25.524Z,263.74
2019-02-25T02:56:25.788Z,266.87
2019-02-25T02:57:26.048Z,266.09
2019-02-25T02:58:26.318Z,264.39
2019-02-25T02:59:26.552Z,266.56
2019-02-25T03:00:26.812Z,264.74
2019-02-25T03:01:27.095Z,265.51
2019-02-25T03:02:27.382Z,265.95
2019-02-25T03:03:27.584Z,265.38
2019-02-25T03:04:27.852Z,265.49
2019-02-25T03:05:28.065Z,265.85
2019-02-25T03:06:28.346Z,266.30
2019-02-25T03:07:28.583Z,265.93
2019-02-25T03:08:28.853Z,265.46
2019-02-25T03:09:29.102Z,265.27
2019-02-25T03:10:29.391Z,265.19
2019-02-25T03:11:29.590Z,265.17
2019-02-25T03:12:29.839Z,264.87
2019-02-25T03:13:30.110Z,266.22
2019-02-25T03:14:30.347Z,263.92
2019-02-25T03:15:30.592Z,266.26
2019-02-25T03:16:30.871Z,264.66
2019-02-25T03:17:31.099Z,264.58
2019-02-25T03:18:31.409Z,265.31
2019-02-25T03:19:31.672Z,265.72
2019-02-25T03:20:31.870Z,265.08
2019-02-25T03:21:32.142Z,264.29
2019-02-25T03:22:32.359Z,264.04
2019-02-25T03:23:32.647Z,265.54
2019-02-25T03:24:32.899Z,266.07
2019-02-25T03:25:33.150Z,263.63
2019-02-25T03:26:33.446Z,263.80
2019-02-25T03:27:33.754Z,264.84
2019-02-25T03:28:33.931Z,262.96
2019-02-25T03:29:34.181Z,263.59
2019-02-25T03:30:34.417Z,263.17
2019-02-25T03:31:34.691Z,263.32
2019-02-25T03:32:34.925Z,263.36
2019-02-25T03:33:35.428Z,264.04
2019-02-25T03:34:35.434Z,264.43
2019-02-25T03:35:35.771Z,263.73
2019-02-25T03:36:35.949Z,266.07
2019-02-25T03:37:36.185Z,263.66
2019-02-25T03:38:36.451Z,263.60
2019-02-25T03:39:36.701Z,215.50
2019-02-25T03:40:36.970Z,215.47
2019-02-25T03:41:37.239Z,266.00
2019-02-25T03:42:37.476Z,265.61
2019-02-25T03:43:37.819Z,266.01
2019-02-25T03:44:37.958Z,265.76
2019-02-25T03:45:38.229Z,265.75
2019-02-25T03:46:38.493Z,266.28
2019-02-25T03:47:38.732Z,265.04
2019-02-25T03:48:39.000Z,264.43
2019-02-25T03:49:39.244Z,266.29
2019-02-25T03:50:39.550Z,265.32
2019-02-25T03:51:39.810Z,263.78
2019-02-25T03:52:39.979Z,266.34
2019-02-25T03:53:40.247Z,265.90
2019-02-25T03:54:40.497Z,265.97
2019-02-25T03:55:40.744Z,266.07
2019-02-25T03:56:41.016Z,266.23
2019-02-25T03:57:41.257Z,266.36
2019-02-25T03:58:41.510Z,264.54
2019-02-25T03:59:41.837Z,264.37
2019-02-25T04:00:42.088Z,263.91
2019-02-25T04:01:42.293Z,264.37
2019-02-25T04:02:42.540Z,263.84
2019-02-25T04:03:42.813Z,265.54
2019-02-25T04:04:43.093Z,265.10
2019-02-25T04:05:43.334Z,266.42
2019-02-25T04:06:43.605Z,264.15
2019-02-25T04:07:43.831Z,266.23
2019-02-25T04:08:44.164Z,265.08
2019-02-25T04:09:44.398Z,263.89
2019-02-25T04:10:44.622Z,266.23
2019-02-25T04:11:44.897Z,265.94
2019-02-25T04:12:45.130Z,265.02
2019-02-25T04:13:45.380Z,266.62
2019-02-25T04:14:45.653Z,264.83
2019-02-25T04:15:45.884Z,264.44
2019-02-25T04:16:46.311Z,266.51
2019-02-25T04:17:46.385Z,266.75
2019-02-25T04:18:46.649Z,264.78
2019-02-25T04:19:46.927Z,266.92
2019-02-25T04:20:47.155Z,264.07
2019-02-25T04:21:47.412Z,266.36
2019-02-25T04:22:47.656Z,266.78
2019-02-25T04:23:47.901Z,265.06
2019-02-25T04:24:48.247Z,265.81
2019-02-25T04:25:48.398Z,266.36
2019-02-25T04:26:48.692Z,266.50
2019-02-25T04:27:48.914Z,266.99
2019-02-25T04:28:49.150Z,264.16
2019-02-25T04:29:49.430Z,266.97
2019-02-25T04:30:49.670Z,266.24
2019-02-25T04:31:49.944Z,264.20
2019-02-25T04:32:50.237Z,264.74
2019-02-25T04:33:50.419Z,266.98
2019-02-25T04:34:50.680Z,265.27
2019-02-25T04:35:50.914Z,264.19
2019-02-25T04:36:51.197Z,265.60
2019-02-25T04:37:51.438Z,267.06
2019-02-25T04:38:51.689Z,267.18
2019-02-25T04:39:51.980Z,266.41
2019-02-25T04:40:52.206Z,264.92
2019-02-25T04:41:52.513Z,267.00
2019-02-25T04:42:52.699Z,264.77
2019-02-25T04:43:52.945Z,263.82
2019-02-25T04:44:53.245Z,264.31
2019-02-25T04:45:53.457Z,264.64
2019-02-25T04:46:53.714Z,265.03
2019-02-25T04:47:53.965Z,266.36
2019-02-25T04:48:54.232Z,264.80
2019-02-25T04:49:54.612Z,264.57
2019-02-25T04:50:54.709Z,264.18
2019-02-25T04:51:54.995Z,267.16
2019-02-25T04:52:55.245Z,267.43
2019-02-25T04:53:55.499Z,266.56
2019-02-25T04:54:55.772Z,266.85
2019-02-25T04:55:56.002Z,264.45
2019-02-25T04:56:56.245Z,266.85
2019-02-25T04:57:56.635Z,264.37
2019-02-25T04:58:56.761Z,267.01
2019-02-25T04:59:57.045Z,267.76
2019-02-25T05:00:57.271Z,266.46
2019-02-25T05:01:57.495Z,266.93
2019-02-25T05:02:57.789Z,265.55
2019-02-25T05:03:58.055Z,266.44
2019-02-25T05:04:58.331Z,264.69
2019-02-25T05:05:58.601Z,267.05
2019-02-25T05:06:58.799Z,266.76
2019-02-25T05:07:59.056Z,264.19
2019-02-25T05:08:59.330Z,266.87
2019-02-25T05:09:59.611Z,266.25
2019-02-25T05:10:59.841Z,267.38
2019-02-25T05:12:00.084Z,264.46
2019-02-25T05:13:00.576Z,265.08
2019-02-25T05:14:00.634Z,264.86
2019-02-25T05:15:00.849Z,267.97
2019-02-25T05:16:01.085Z,267.28
2019-02-25T05:17:01.338Z,264.75
2019-02-25T05:18:01.607Z,267.26
2019-02-25T05:19:01.843Z,267.31
2019-02-25T05:20:02.133Z,266.55
2019-02-25T05:21:02.359Z,264.96
2019-02-25T05:22:02.645Z,268.00
2019-02-25T05:23:02.963Z,266.16
2019-02-25T05:24:03.134Z,265.34
2019-02-25T05:25:03.399Z,266.52
2019-02-25T05:26:03.642Z,266.42
2019-02-25T05:27:03.895Z,266.98
2019-02-25T05:28:04.168Z,267.84
2019-02-25T05:29:04.402Z,216.41
2019-02-25T05:30:04.693Z,216.41
2019-02-25T05:31:05.043Z,216.41
2019-02-25T05:32:05.160Z,216.51
2019-02-25T05:33:05.452Z,216.51
2019-02-25T05:34:05.662Z,216.56
2019-02-25T05:35:05.950Z,216.59
2019-02-25T05:36:06.152Z,216.63
2019-02-25T05:37:06.440Z,216.56
2019-02-25T05:38:06.725Z,216.58
2019-02-25T05:39:07.037Z,216.61
2019-02-25T05:40:07.214Z,216.69
2019-02-25T05:41:07.423Z,216.63
2019-02-25T05:42:07.701Z,216.58
2019-02-25T05:43:07.967Z,216.57
2019-02-25T05:44:08.567Z,216.57
2019-02-25T05:45:08.479Z,216.51
2019-02-25T05:46:08.706Z,216.48
2019-02-25T05:47:09.000Z,216.50
2019-02-25T05:48:09.220Z,216.51
2019-02-25T05:49:09.453Z,216.51
2019-02-25T05:50:09.736Z,216.53
2019-02-25T05:51:09.959Z,216.46
2019-02-25T05:52:10.217Z,216.53
2019-02-25T05:53:10.460Z,216.51
2019-02-25T05:54:10.705Z,216.45
2019-02-25T05:55:11.050Z,216.51
2019-02-25T05:56:11.201Z,216.53
2019-02-25T05:57:11.466Z,216.51
2019-02-25T05:58:11.748Z,216.55
2019-02-25T05:59:11.978Z,216.44
2019-02-25T06:00:12.256Z,216.45
2019-02-25T06:01:12.486Z,216.48
2019-02-25T06:02:12.732Z,216.44
2019-02-25T06:03:13.045Z,216.44
2019-02-25T06:04:13.343Z,216.42
2019-02-25T06:05:13.514Z,216.41
2019-02-25T06:06:13.770Z,216.46
2019-02-25T06:07:14.007Z,216.51
2019-02-25T06:08:14.276Z,216.46
2019-02-25T06:09:14.514Z,216.49
2019-02-25T06:10:14.752Z,216.42
2019-02-25T06:11:15.061Z,216.46
2019-02-25T06:12:15.410Z,216.41
2019-02-25T06:13:15.583Z,216.44
2019-02-25T06:14:15.806Z,216.45
2019-02-25T06:15:16.047Z,216.44
2019-02-25T06:16:16.348Z,216.48
2019-02-25T06:17:16.575Z,216.50
2019-02-25T06:18:16.860Z,216.50
2019-02-25T06:19:17.090Z,216.44
2019-02-25T06:20:17.457Z,216.44
2019-02-25T06:21:17.604Z,216.41
2019-02-25T06:22:17.831Z,216.48
2019-02-25T06:23:18.106Z,216.37
2019-02-25T06:24:18.354Z,216.37
2019-02-25T06:25:18.609Z,216.36
2019-02-25T06:26:18.860Z,216.33
2019-02-25T06:27:19.102Z,216.34
2019-02-25T06:28:19.444Z,216.37
2019-02-25T06:29:19.609Z,216.37
2019-02-25T06:30:19.880Z,216.39
2019-02-25T06:31:20.172Z,216.30
2019-02-25T06:32:20.358Z,216.38
2019-02-25T06:33:20.647Z,216.33
2019-02-25T06:34:20.881Z,216.30
2019-02-25T06:35:21.143Z,216.49
2019-02-25T06:36:21.466Z,216.42
2019-02-25T06:37:21.625Z,216.46
2019-02-25T06:38:21.879Z,216.49
2019-02-25T06:39:22.137Z,216.49
2019-02-25T06:40:22.469Z,216.45
2019-02-25T06:41:22.659Z,216.45
2019-02-25T06:42:22.899Z,216.38
2019-02-25T06:43:23.169Z,216.30
2019-02-25T06:44:23.421Z,216.38
2019-02-25T06:45:23.737Z,216.37
2019-02-25T06:46:23.949Z,216.33
2019-02-25T06:47:24.168Z,216.30
2019-02-25T06:48:24.435Z,216.24
2019-02-25T06:49:24.654Z,216.26
2019-02-25T06:50:24.927Z,216.22
2019-02-25T06:51:25.199Z,216.26
2019-02-25T06:52:25.659Z,216.18
2019-02-25T06:53:25.822Z,216.30
2019-02-25T06:54:25.920Z,216.10
2019-02-25T06:55:26.199Z,216.14
2019-02-25T06:56:26.472Z,216.08
2019-02-25T06:57:26.687Z,216.08
2019-02-25T06:58:26.970Z,216.07
2019-02-25T06:59:27.208Z,216.04
2019-02-25T07:00:27.444Z,215.99
2019-02-25T07:01:27.866Z,216.05
2019-02-25T07:02:27.953Z,215.98
2019-02-25T07:03:28.231Z,215.88
2019-02-25T07:04:28.465Z,215.68
2019-02-25T07:05:28.703Z,215.49
2019-02-25T07:06:29.006Z,215.42
2019-02-25T07:07:29.242Z,215.25
2019-02-25T07:08:29.494Z,215.03
2019-02-25T07:09:29.842Z,214.88
2019-02-25T07:10:29.985Z,214.76
2019-02-25T07:11:30.254Z,214.56
2019-02-25T07:12:30.480Z,214.46
2019-02-25T07:13:30.754Z,214.42
2019-02-25T07:14:31.020Z,214.27
2019-02-25T07:15:31.270Z,214.29
2019-02-25T07:16:31.553Z,214.15
2019-02-25T07:17:31.804Z,214.16
2019-02-25T07:18:32.033Z,214.18
2019-02-25T07:19:32.304Z,214.07
2019-02-25T07:20:32.560Z,214.02
2019-02-25T07:21:32.850Z,213.99
2019-02-25T07:22:33.071Z,213.96
2019-02-25T07:23:33.309Z,213.93
2019-02-25T07:24:33.588Z,213.92
2019-02-25T07:25:33.859Z,213.87
2019-02-25T07:26:34.246Z,213.74
2019-02-25T07:27:34.375Z,213.74
2019-02-25T07:28:36.588Z,213.70
2019-02-25T07:29:34.899Z,213.58
2019-02-25T07:30:35.137Z,213.52
2019-02-25T07:31:35.435Z,213.48
2019-02-25T07:32:35.646Z,213.50
2019-02-25T07:33:35.902Z,213.37
2019-02-25T07:34:36.314Z,213.41
2019-02-25T07:35:36.407Z,213.38
2019-02-25T07:36:36.701Z,213.36
2019-02-25T07:37:36.911Z,213.32
2019-02-25T07:38:39.385Z,213.32
2019-02-25T07:39:37.431Z,213.32
2019-02-25T07:40:37.682Z,213.28
2019-02-25T07:41:38.185Z,213.18
2019-02-25T07:42:38.295Z,213.17
2019-02-25T07:43:38.442Z,213.12
2019-02-25T07:44:38.716Z,213.07
2019-02-25T07:45:38.938Z,213.07
2019-02-25T07:46:39.241Z,213.04
2019-02-25T07:47:39.461Z,212.98
2019-02-25T07:48:39.714Z,212.93
2019-02-25T07:49:39.990Z,212.94
2019-02-25T07:50:47.010Z,212.89
2019-02-25T07:51:41.478Z,212.90
2019-02-25T07:52:40.718Z,212.89
2019-02-25T07:53:40.972Z,212.78
2019-02-25T07:54:41.243Z,212.78
2019-02-25T07:55:41.479Z,212.78
2019-02-25T07:56:41.759Z,212.71
2019-02-25T07:57:41.976Z,212.71
2019-02-25T07:58:42.265Z,212.68
2019-02-25T07:59:42.508Z,262.31
2019-02-25T08:00:42.748Z,262.76
2019-02-25T08:01:43.019Z,261.53
2019-02-25T08:02:43.261Z,260.69
2019-02-25T08:03:43.509Z,260.87
2019-02-25T08:04:43.788Z,262.58
2019-02-25T08:05:44.028Z,262.73
2019-02-25T08:06:44.343Z,262.23
2019-02-25T08:07:44.633Z,262.43
2019-02-25T08:08:44.801Z,262.23
2019-02-25T08:09:45.066Z,261.20
2019-02-25T08:10:45.304Z,262.84
2019-02-25T08:11:45.587Z,261.33
2019-02-25T08:12:45.822Z,261.13
2019-02-25T08:13:46.047Z,261.92
2019-02-25T08:14:46.325Z,263.41
2019-02-25T08:15:46.718Z,260.61
2019-02-25T08:16:46.843Z,260.57
2019-02-25T08:17:47.094Z,262.11
2019-02-25T08:18:47.320Z,262.34
2019-02-25T08:19:47.615Z,260.91
2019-02-25T08:20:47.858Z,261.28
2019-02-25T08:21:48.101Z,263.22
2019-02-25T08:22:48.386Z,262.25
2019-02-25T08:23:48.689Z,260.56
2019-02-25T08:24:48.886Z,260.69
2019-02-25T08:25:49.123Z,260.58
2019-02-25T08:26:49.403Z,262.26
2019-02-25T08:27:49.681Z,261.48
2019-02-25T08:28:49.882Z,260.56
2019-02-25T08:29:50.376Z,260.83
2019-02-25T08:30:50.375Z,262.91
2019-02-25T08:31:50.710Z,262.43
2019-02-25T08:32:50.907Z,259.47
2019-02-25T08:33:51.137Z,261.10
2019-02-25T08:34:51.409Z,262.37
2019-02-25T08:35:52.365Z,260.73
2019-02-25T08:36:51.892Z,261.77
2019-02-25T08:37:52.182Z,261.99
2019-02-25T08:38:52.408Z,262.27
2019-02-25T08:39:52.871Z,258.98
2019-02-25T08:40:52.930Z,259.65
2019-02-25T08:41:53.179Z,261.85
2019-02-25T08:42:53.439Z,259.41
2019-02-25T08:43:53.677Z,258.96
2019-02-25T08:44:53.947Z,260.49
2019-02-25T08:45:54.186Z,262.10
2019-02-25T08:46:54.448Z,261.04
2019-02-25T08:47:54.867Z,260.42
2019-02-25T08:48:55.366Z,260.38
2019-02-25T08:49:55.369Z,260.35
2019-02-25T08:50:56.202Z,259.61
2019-02-25T08:51:55.703Z,260.78
2019-02-25T08:52:56.370Z,260.24
2019-02-25T08:53:56.232Z,261.64
2019-02-25T08:54:56.501Z,260.81
2019-02-25T08:55:58.244Z,259.56
2019-02-25T08:56:57.131Z,261.64
2019-02-25T08:57:57.242Z,258.74
2019-02-25T08:58:57.512Z,259.77
2019-02-25T08:59:57.775Z,260.15
2019-02-25T09:00:58.014Z,259.41
2019-02-25T09:01:58.860Z,259.31
2019-02-25T09:02:58.870Z,261.04
2019-02-25T09:03:58.764Z,259.56
2019-02-25T09:04:59.134Z,259.35
2019-02-25T09:05:59.296Z,261.45
2019-02-25T09:06:59.870Z,259.37
2019-02-25T09:07:59.835Z,262.03
2019-02-25T09:09:00.043Z,259.18
2019-02-25T09:10:00.385Z,260.74
2019-02-25T09:11:00.567Z,258.62
2019-02-25T09:12:00.847Z,260.24
2019-02-25T09:13:01.129Z,260.29
2019-02-25T09:14:01.321Z,259.43
2019-02-25T09:15:01.576Z,259.30
2019-02-25T09:16:01.811Z,260.47
2019-02-25T09:17:02.070Z,258.50
2019-02-25T09:18:02.339Z,260.38
2019-02-25T09:19:02.879Z,260.53
2019-02-25T09:20:02.835Z,261.29
2019-02-25T09:21:03.104Z,261.12
2019-02-25T09:22:03.393Z,260.09
2019-02-25T09:23:04.339Z,261.34
2019-02-25T09:24:03.913Z,211.02
2019-02-25T09:25:04.147Z,210.92
2019-02-25T09:26:04.422Z,260.11
2019-02-25T09:27:05.377Z,260.96
2019-02-25T09:28:05.840Z,261.18
2019-02-25T09:29:05.233Z,259.60
2019-02-25T09:30:05.873Z,258.56
2019-02-25T09:31:06.381Z,260.10
2019-02-25T09:32:05.958Z,259.13
2019-02-25T09:33:06.334Z,258.49
2019-02-25T09:34:06.492Z,257.55
2019-02-25T09:35:06.746Z,261.00
2019-02-25T09:36:07.007Z,259.37
2019-02-25T09:37:07.985Z,210.67
2019-02-25T09:38:07.612Z,210.61
2019-02-25T09:39:07.769Z,260.12
2019-02-25T09:40:07.998Z,259.22
2019-02-25T09:41:08.269Z,257.87
2019-02-25T09:42:08.506Z,258.01
2019-02-25T09:43:08.786Z,258.90
2019-02-25T09:44:09.017Z,259.64
2019-02-25T09:45:09.284Z,258.37
2019-02-25T09:46:09.611Z,259.45
2019-02-25T09:47:09.783Z,258.88
2019-02-25T09:48:10.049Z,258.69
2019-02-25T09:49:10.275Z,258.94
2019-02-25T09:50:10.556Z,259.93
2019-02-25T09:51:11.380Z,259.00
2019-02-25T09:52:11.044Z,261.03
2019-02-25T09:53:11.333Z,258.49
2019-02-25T09:54:11.632Z,259.21
2019-02-25T09:55:11.804Z,258.54
2019-02-25T09:56:12.085Z,259.88
2019-02-25T09:57:12.326Z,262.19
2019-02-25T09:58:12.594Z,259.95
2019-02-25T09:59:12.830Z,259.91
2019-02-25T10:00:13.087Z,259.28
2019-02-25T10:01:13.338Z,258.85
2019-02-25T10:02:13.644Z,260.13
2019-02-25T10:03:13.862Z,260.70
2019-02-25T10:04:14.106Z,260.62
2019-02-25T10:05:14.382Z,258.92
2019-02-25T10:06:14.612Z,259.72
2019-02-25T10:07:15.077Z,261.49
2019-02-25T10:08:15.392Z,259.58
2019-02-25T10:09:15.609Z,259.67
2019-02-25T10:10:15.883Z,257.81
2019-02-25T10:11:16.241Z,260.70
2019-02-25T10:12:16.371Z,260.66
2019-02-25T10:13:16.664Z,259.56
2019-02-25T10:14:16.888Z,259.61
2019-02-25T10:15:17.170Z,259.60
2019-02-25T10:16:17.413Z,259.37
2019-02-25T10:17:23.464Z,259.16
2019-02-25T10:18:18.909Z,259.61
2019-02-25T10:19:18.458Z,260.37
2019-02-25T10:20:18.411Z,262.37
2019-02-25T10:21:18.664Z,261.08
2019-02-25T10:22:18.880Z,258.48
2019-02-25T10:23:19.187Z,260.47
2019-02-25T10:24:19.427Z,260.15
2019-02-25T10:25:19.680Z,259.76
2019-02-25T10:26:19.955Z,260.78
2019-02-25T10:27:20.257Z,260.32
2019-02-25T10:28:20.438Z,260.67
2019-02-25T10:29:20.682Z,257.56
2019-02-25T10:30:20.935Z,260.25
2019-02-25T10:31:21.213Z,260.31
2019-02-25T10:32:23.234Z,258.04
2019-02-25T10:33:21.712Z,260.47
2019-02-25T10:34:23.934Z,258.59
2019-02-25T10:35:22.251Z,257.46
2019-02-25T10:36:22.487Z,258.76
2019-02-25T10:37:22.711Z,259.74
2019-02-25T10:38:22.987Z,258.39
2019-02-25T10:39:23.225Z,260.15
2019-02-25T10:40:24.533Z,258.47
2019-02-25T10:41:25.526Z,257.72
2019-02-25T10:42:23.963Z,257.46
2019-02-25T10:43:25.675Z,258.85
2019-02-25T10:44:24.508Z,258.16
2019-02-25T10:45:24.749Z,257.76
2019-02-25T10:46:25.032Z,259.78
2019-02-25T10:47:25.276Z,257.61
2019-02-25T10:48:25.875Z,259.01
2019-02-25T10:49:26.673Z,257.47
2019-02-25T10:50:26.036Z,259.09
2019-02-25T10:51:26.326Z,258.51
2019-02-25T10:52:26.595Z,259.17
2019-02-25T10:53:26.829Z,258.87
2019-02-25T10:54:27.083Z,259.11
2019-02-25T10:55:27.315Z,257.35
2019-02-25T10:56:27.575Z,257.54
2019-02-25T10:57:29.172Z,257.52
2019-02-25T10:58:29.116Z,258.31
2019-02-25T10:59:29.841Z,257.74
2019-02-25T11:00:28.726Z,258.48
2019-02-25T11:01:28.855Z,258.56
2019-02-25T11:02:29.097Z,260.06
2019-02-25T11:03:29.373Z,208.75
2019-02-25T11:04:29.647Z,258.64
2019-02-25T11:05:30.549Z,259.22
2019-02-25T11:06:32.075Z,258.53
2019-02-25T11:07:30.831Z,258.68
2019-02-25T11:08:30.703Z,259.21
2019-02-25T11:09:30.898Z,259.19
2019-02-25T11:10:31.138Z,257.59
2019-02-25T11:11:31.406Z,259.02
2019-02-25T11:12:32.077Z,258.69
2019-02-25T11:13:33.945Z,259.61
2019-02-25T11:14:33.346Z,259.17
2019-02-25T11:15:32.403Z,258.62
2019-02-25T11:16:32.716Z,259.04
2019-02-25T11:17:32.891Z,259.46
2019-02-25T11:18:33.165Z,258.77
2019-02-25T11:19:33.405Z,259.35
2019-02-25T11:20:35.099Z,257.10
2019-02-25T11:21:35.256Z,259.47
2019-02-25T11:22:34.159Z,259.27
2019-02-25T11:23:34.422Z,259.17
2019-02-25T11:24:34.727Z,258.97
2019-02-25T11:25:34.898Z,259.99
2019-02-25T11:26:35.314Z,256.80
2019-02-25T11:27:37.398Z,259.26
2019-02-25T11:28:36.609Z,257.96
2019-02-25T11:29:37.864Z,257.55
2019-02-25T11:30:36.159Z,259.02
2019-02-25T11:31:36.460Z,259.84
2019-02-25T11:32:36.727Z,259.75
2019-02-25T11:33:37.064Z,258.37
2019-02-25T11:34:37.580Z,259.08
2019-02-25T11:35:38.927Z,258.37
2019-02-25T11:36:37.743Z,257.63
2019-02-25T11:37:37.988Z,258.50
2019-02-25T11:38:38.254Z,257.52
2019-02-25T11:39:38.499Z,258.46
2019-02-25T11:40:38.735Z,257.89
2019-02-25T11:41:40.878Z,256.97
2019-02-25T11:42:39.235Z,257.48
2019-02-25T11:43:39.508Z,258.28
2019-02-25T11:44:40.008Z,259.00
2019-02-25T11:45:40.012Z,258.12
2019-02-25T11:46:40.244Z,258.32
2019-02-25T11:47:40.526Z,257.12
2019-02-25T11:48:40.806Z,258.72
2019-02-25T11:49:41.139Z,258.04
2019-02-25T11:50:41.284Z,256.91
2019-02-25T11:51:41.529Z,258.17
2019-02-25T11:52:41.832Z,258.20
2019-02-25T11:53:42.085Z,256.67
2019-02-25T11:54:42.343Z,256.53
2019-02-25T11:55:42.587Z,258.19
2019-02-25T11:56:42.859Z,258.50
2019-02-25T11:57:43.133Z,257.27
2019-02-25T11:58:43.349Z,258.22
2019-02-25T11:59:43.623Z,257.97
2019-02-25T12:00:43.861Z,257.33
2019-02-25T12:01:44.120Z,259.30
2019-02-25T12:02:44.377Z,259.31
2019-02-25T12:03:44.609Z,258.94
2019-02-25T12:04:44.871Z,257.28
2019-02-25T12:05:45.187Z,257.01
2019-02-25T12:06:45.408Z,257.98
2019-02-25T12:07:45.659Z,256.97
2019-02-25T12:08:45.900Z,259.28
2019-02-25T12:09:46.151Z,258.17
2019-02-25T12:10:46.402Z,258.89
2019-02-25T12:11:46.669Z,258.58
2019-02-25T12:12:46.957Z,258.53
2019-02-25T12:13:47.205Z,257.04
2019-02-25T12:14:47.514Z,259.16
2019-02-25T12:15:47.680Z,258.01
2019-02-25T12:16:47.933Z,258.73
2019-02-25T12:17:48.221Z,256.38
2019-02-25T12:18:48.443Z,259.44
2019-02-25T12:19:48.711Z,256.88
2019-02-25T12:20:48.931Z,257.14
2019-02-25T12:21:49.199Z,257.93
2019-02-25T12:22:49.639Z,258.19
2019-02-25T12:23:49.709Z,259.06
2019-02-25T12:24:49.984Z,258.56
2019-02-25T12:25:50.234Z,259.76
2019-02-25T12:26:50.473Z,258.29
2019-02-25T12:27:50.749Z,258.15
2019-02-25T12:28:50.985Z,258.92
2019-02-25T12:29:51.256Z,260.01
2019-02-25T12:30:51.538Z,258.92
2019-02-25T12:31:51.723Z,258.60